Brooklyn Park, Minnesota
Current Conditions -  °F | °C
As of 10:53 PM on Wednesday 22 Oct 2014 (Local Time) from KMIC Reporting Station
Scattered Clouds Scattered Clouds  
Wind Chill: 57°   Ceiling: Unl
Heat Index: 57°   Visibility: 10mi
Dew Point: 41°   Wind: 10mph
Humidity: 55%   Direction: 160°SSE
Pressure: 30.02"   Gusts: 20mph
Location:  45.11°N, 93.35°W
Report Text: KMIC 230353Z AUTO 16009G17KT 10SM SCT070 SCT090 14/05 A3002 RMK AO2 SLP169 T01390050
Loading
Personal Weather Stations






























Interactive Weather Map
Tropical Storm Tracking
New forecast layout! Learn more

10-Day Weather Forecast

Advertisements
Track Severe Weather on mobile